sensor_id;sensor_type;location;lat;lon;timestamp;P1;durP1;ratioP1;P2;durP2;ratioP2
12861;SDS011;6499;66.348;14.134;2024-01-15T00:00:28;2.87;;;1.53;;
12861;SDS011;6499;66.348;14.134;2024-01-15T00:02:54;1.23;;;1.00;;
12861;SDS011;6499;66.348;14.134;2024-01-15T00:05:22;1.10;;;1.00;;
12861;SDS011;6499;66.348;14.134;2024-01-15T00:07:51;1.50;;;1.00;;
12861;SDS011;6499;66.348;14.134;2024-01-15T00:10:21;1.97;;;1.47;;
12861;SDS011;6499;66.348;14.134;2024-01-15T00:12:48;1.37;;;0.90;;
12861;SDS011;6499;66.348;14.134;2024-01-15T00:15:15;1.20;;;1.00;;
12861;SDS011;6499;66.348;14.134;2024-01-15T00:17:41;1.13;;;0.93;;
12861;SDS011;6499;66.348;14.134;2024-01-15T00:20:08;1.73;;;1.30;;
12861;SDS011;6499;66.348;14.134;2024-01-15T00:22:35;3.63;;;1.50;;
12861;SDS011;6499;66.348;14.134;2024-01-15T00:25:02;6.07;;;2.63;;
12861;SDS011;6499;66.348;14.134;2024-01-15T00:27:30;8.23;;;3.73;;
12861;SDS011;6499;66.348;14.134;2024-01-15T00:29:56;2.83;;;1.80;;
12861;SDS011;6499;66.348;14.134;2024-01-15T00:32:30;4.00;;;1.80;;
12861;SDS011;6499;66.348;14.134;2024-01-15T00:34:57;3.03;;;1.50;;
12861;SDS011;6499;66.348;14.134;2024-01-15T00:37:33;1.80;;;1.33;;
12861;SDS011;6499;66.348;14.134;2024-01-15T00:40:00;2.73;;;1.40;;
12861;SDS011;6499;66.348;14.134;2024-01-15T00:42:34;1.03;;;0.80;;
12861;SDS011;6499;66.348;14.134;2024-01-15T00:45:01;1.93;;;1.10;;
12861;SDS011;6499;66.348;14.134;2024-01-15T00:47:31;0.87;;;0.70;;
12861;SDS011;6499;66.348;14.134;2024-01-15T00:49:57;1.33;;;0.87;;
12861;SDS011;6499;66.348;14.134;2024-01-15T00:52:24;0.60;;;0.50;;
12861;SDS011;6499;66.348;14.134;2024-01-15T00:54:51;1.87;;;0.80;;
12861;SDS011;6499;66.348;14.134;2024-01-15T00:57:17;1.30;;;0.80;;
12861;SDS011;6499;66.348;14.134;2024-01-15T00:59:46;0.53;;;0.53;;
12861;SDS011;6499;66.348;14.134;2024-01-15T01:02:13;1.80;;;0.70;;
12861;SDS011;6499;66.348;14.134;2024-01-15T01:04:40;1.17;;;0.70;;
12861;SDS011;6499;66.348;14.134;2024-01-15T01:07:06;0.60;;;0.60;;
12861;SDS011;6499;66.348;14.134;2024-01-15T01:09:33;1.53;;;0.60;;
12861;SDS011;6499;66.348;14.134;2024-01-15T01:11:59;0.90;;;0.50;;
12861;SDS011;6499;66.348;14.134;2024-01-15T01:14:26;0.73;;;0.60;;
12861;SDS011;6499;66.348;14.134;2024-01-15T01:16:54;0.83;;;0.60;;
12861;SDS011;6499;66.348;14.134;2024-01-15T01:19:25;1.37;;;0.50;;
12861;SDS011;6499;66.348;14.134;2024-01-15T01:21:51;0.87;;;0.57;;
12861;SDS011;6499;66.348;14.134;2024-01-15T01:24:18;0.47;;;0.47;;
12861;SDS011;6499;66.348;14.134;2024-01-15T01:29:20;1.67;;;0.50;;
12861;SDS011;6499;66.348;14.134;2024-01-15T01:31:48;1.27;;;0.47;;
12861;SDS011;6499;66.348;14.134;2024-01-15T01:34:19;1.80;;;0.93;;
12861;SDS011;6499;66.348;14.134;2024-01-15T01:36:48;1.17;;;0.80;;
12861;SDS011;6499;66.348;14.134;2024-01-15T01:39:15;1.50;;;1.10;;
12861;SDS011;6499;66.348;14.134;2024-01-15T01:41:42;2.63;;;0.87;;
12861;SDS011;6499;66.348;14.134;2024-01-15T01:44:09;1.13;;;1.03;;
12861;SDS011;6499;66.348;14.134;2024-01-15T01:46:35;2.60;;;1.10;;
12861;SDS011;6499;66.348;14.134;2024-01-15T01:49:04;1.30;;;0.90;;
12861;SDS011;6499;66.348;14.134;2024-01-15T01:51:33;2.37;;;1.23;;
12861;SDS011;6499;66.348;14.134;2024-01-15T01:54:00;2.73;;;1.30;;
12861;SDS011;6499;66.348;14.134;2024-01-15T01:56:27;3.33;;;1.57;;
12861;SDS011;6499;66.348;14.134;2024-01-15T01:58:53;1.33;;;0.93;;
12861;SDS011;6499;66.348;14.134;2024-01-15T02:01:20;1.10;;;0.90;;
12861;SDS011;6499;66.348;14.134;2024-01-15T02:03:47;2.30;;;1.17;;
12861;SDS011;6499;66.348;14.134;2024-01-15T02:06:14;2.67;;;0.97;;
12861;SDS011;6499;66.348;14.134;2024-01-15T02:08:53;0.80;;;0.80;;
12861;SDS011;6499;66.348;14.134;2024-01-15T02:11:20;1.67;;;0.70;;
12861;SDS011;6499;66.348;14.134;2024-01-15T02:13:48;1.40;;;0.60;;
12861;SDS011;6499;66.348;14.134;2024-01-15T02:16:22;1.63;;;0.70;;
12861;SDS011;6499;66.348;14.134;2024-01-15T02:18:49;0.93;;;0.60;;
12861;SDS011;6499;66.348;14.134;2024-01-15T02:21:15;0.70;;;0.70;;
12861;SDS011;6499;66.348;14.134;2024-01-15T02:23:43;1.80;;;0.50;;
12861;SDS011;6499;66.348;14.134;2024-01-15T02:26:10;0.53;;;0.50;;
12861;SDS011;6499;66.348;14.134;2024-01-15T02:28:37;0.60;;;0.50;;
12861;SDS011;6499;66.348;14.134;2024-01-15T02:31:06;1.03;;;0.63;;
12861;SDS011;6499;66.348;14.134;2024-01-15T02:33:33;0.80;;;0.70;;
12861;SDS011;6499;66.348;14.134;2024-01-15T02:36:03;0.53;;;0.53;;
12861;SDS011;6499;66.348;14.134;2024-01-15T02:38:33;0.40;;;0.40;;
12861;SDS011;6499;66.348;14.134;2024-01-15T02:41:03;1.13;;;0.50;;
12861;SDS011;6499;66.348;14.134;2024-01-15T02:43:32;0.70;;;0.47;;
12861;SDS011;6499;66.348;14.134;2024-01-15T02:45:59;0.30;;;0.30;;
12861;SDS011;6499;66.348;14.134;2024-01-15T02:48:25;1.53;;;0.50;;
12861;SDS011;6499;66.348;14.134;2024-01-15T02:50:52;0.53;;;0.40;;
12861;SDS011;6499;66.348;14.134;2024-01-15T02:53:18;0.83;;;0.60;;
12861;SDS011;6499;66.348;14.134;2024-01-15T02:55:45;0.67;;;0.47;;
12861;SDS011;6499;66.348;14.134;2024-01-15T02:58:16;0.67;;;0.50;;
12861;SDS011;6499;66.348;14.134;2024-01-15T03:00:42;0.40;;;0.40;;
12861;SDS011;6499;66.348;14.134;2024-01-15T03:03:09;0.70;;;0.50;;
12861;SDS011;6499;66.348;14.134;2024-01-15T03:05:36;0.60;;;0.40;;
12861;SDS011;6499;66.348;14.134;2024-01-15T03:08:03;0.60;;;0.50;;
12861;SDS011;6499;66.348;14.134;2024-01-15T03:10:29;0.73;;;0.40;;
12861;SDS011;6499;66.348;14.134;2024-01-15T03:12:57;0.70;;;0.50;;
12861;SDS011;6499;66.348;14.134;2024-01-15T03:21:12;0.40;;;0.40;;
12861;SDS011;6499;66.348;14.134;2024-01-15T03:23:39;0.50;;;0.30;;
12861;SDS011;6499;66.348;14.134;2024-01-15T03:26:06;0.50;;;0.40;;
12861;SDS011;6499;66.348;14.134;2024-01-15T03:28:32;0.50;;;0.50;;
12861;SDS011;6499;66.348;14.134;2024-01-15T03:30:58;0.93;;;0.40;;
12861;SDS011;6499;66.348;14.134;2024-01-15T03:33:25;0.50;;;0.50;;
12861;SDS011;6499;66.348;14.134;2024-01-15T03:35:52;0.80;;;0.40;;
12861;SDS011;6499;66.348;14.134;2024-01-15T03:38:20;0.60;;;0.40;;
12861;SDS011;6499;66.348;14.134;2024-01-15T03:40:49;0.87;;;0.40;;
12861;SDS011;6499;66.348;14.134;2024-01-15T03:43:16;0.70;;;0.50;;
12861;SDS011;6499;66.348;14.134;2024-01-15T03:45:43;0.50;;;0.50;;
12861;SDS011;6499;66.348;14.134;2024-01-15T03:48:10;0.77;;;0.60;;
12861;SDS011;6499;66.348;14.134;2024-01-15T03:50:37;1.03;;;0.60;;
12861;SDS011;6499;66.348;14.134;2024-01-15T03:53:04;0.70;;;0.50;;
12861;SDS011;6499;66.348;14.134;2024-01-15T03:55:32;0.80;;;0.47;;
12861;SDS011;6499;66.348;14.134;2024-01-15T03:57:58;1.07;;;0.40;;
12861;SDS011;6499;66.348;14.134;2024-01-15T04:00:34;0.60;;;0.40;;
12861;SDS011;6499;66.348;14.134;2024-01-15T04:03:01;0.63;;;0.60;;
12861;SDS011;6499;66.348;14.134;2024-01-15T04:05:28;0.40;;;0.40;;
12861;SDS011;6499;66.348;14.134;2024-01-15T04:07:57;0.50;;;0.40;;
12861;SDS011;6499;66.348;14.134;2024-01-15T04:10:24;0.30;;;0.30;;
12861;SDS011;6499;66.348;14.134;2024-01-15T04:12:52;0.40;;;0.40;;
12861;SDS011;6499;66.348;14.134;2024-01-15T04:15:18;0.50;;;0.50;;
12861;SDS011;6499;66.348;14.134;2024-01-15T04:17:45;1.23;;;0.50;;
12861;SDS011;6499;66.348;14.134;2024-01-15T04:20:12;0.60;;;0.50;;
12861;SDS011;6499;66.348;14.134;2024-01-15T04:22:38;0.40;;;0.40;;
12861;SDS011;6499;66.348;14.134;2024-01-15T04:25:05;0.70;;;0.60;;
12861;SDS011;6499;66.348;14.134;2024-01-15T04:27:32;0.60;;;0.40;;
12861;SDS011;6499;66.348;14.134;2024-01-15T04:30:00;1.93;;;0.57;;
12861;SDS011;6499;66.348;14.134;2024-01-15T04:32:27;0.77;;;0.47;;
12861;SDS011;6499;66.348;14.134;2024-01-15T04:34:53;0.30;;;0.30;;
12861;SDS011;6499;66.348;14.134;2024-01-15T04:37:20;0.40;;;0.30;;
12861;SDS011;6499;66.348;14.134;2024-01-15T04:39:46;1.07;;;0.40;;
12861;SDS011;6499;66.348;14.134;2024-01-15T04:42:13;0.40;;;0.40;;
12861;SDS011;6499;66.348;14.134;2024-01-15T04:44:40;0.30;;;0.30;;
12861;SDS011;6499;66.348;14.134;2024-01-15T04:47:08;0.50;;;0.30;;
12861;SDS011;6499;66.348;14.134;2024-01-15T04:49:34;1.63;;;0.40;;
12861;SDS011;6499;66.348;14.134;2024-01-15T04:52:01;0.40;;;0.40;;
12861;SDS011;6499;66.348;14.134;2024-01-15T04:54:28;0.37;;;0.37;;
12861;SDS011;6499;66.348;14.134;2024-01-15T04:56:54;1.13;;;0.60;;
12861;SDS011;6499;66.348;14.134;2024-01-15T04:59:21;1.37;;;0.47;;
12861;SDS011;6499;66.348;14.134;2024-01-15T05:01:48;0.73;;;0.70;;
12861;SDS011;6499;66.348;14.134;2024-01-15T05:04:16;0.80;;;0.80;;
12861;SDS011;6499;66.348;14.134;2024-01-15T05:06:43;0.97;;;0.60;;
12861;SDS011;6499;66.348;14.134;2024-01-15T05:09:10;1.10;;;0.60;;
12861;SDS011;6499;66.348;14.134;2024-01-15T05:11:38;0.80;;;0.80;;
12861;SDS011;6499;66.348;14.134;2024-01-15T05:14:05;0.60;;;0.60;;
12861;SDS011;6499;66.348;14.134;2024-01-15T05:16:39;0.73;;;0.63;;
12861;SDS011;6499;66.348;14.134;2024-01-15T05:19:06;0.63;;;0.63;;
12861;SDS011;6499;66.348;14.134;2024-01-15T05:21:34;0.80;;;0.80;;
12861;SDS011;6499;66.348;14.134;2024-01-15T05:24:01;0.70;;;0.50;;
12861;SDS011;6499;66.348;14.134;2024-01-15T05:26:27;1.30;;;0.87;;
12861;SDS011;6499;66.348;14.134;2024-01-15T05:28:54;1.97;;;0.70;;
12861;SDS011;6499;66.348;14.134;2024-01-15T05:31:24;19.70;;;7.10;;
12861;SDS011;6499;66.348;14.134;2024-01-15T05:33:54;6.10;;;4.20;;
12861;SDS011;6499;66.348;14.134;2024-01-15T05:36:21;9.50;;;4.10;;
12861;SDS011;6499;66.348;14.134;2024-01-15T05:38:48;5.50;;;2.70;;
12861;SDS011;6499;66.348;14.134;2024-01-15T05:41:15;9.83;;;4.20;;
12861;SDS011;6499;66.348;14.134;2024-01-15T05:43:42;10.10;;;4.70;;
12861;SDS011;6499;66.348;14.134;2024-01-15T05:46:08;20.30;;;8.53;;
12861;SDS011;6499;66.348;14.134;2024-01-15T05:48:35;9.67;;;6.10;;
12861;SDS011;6499;66.348;14.134;2024-01-15T05:51:04;8.10;;;4.40;;
12861;SDS011;6499;66.348;14.134;2024-01-15T05:53:34;6.13;;;3.63;;
12861;SDS011;6499;66.348;14.134;2024-01-15T05:56:03;5.33;;;3.83;;
12861;SDS011;6499;66.348;14.134;2024-01-15T05:58:32;1.97;;;1.77;;
12861;SDS011;6499;66.348;14.134;2024-01-15T06:00:59;3.83;;;2.10;;
12861;SDS011;6499;66.348;14.134;2024-01-15T06:03:25;1.70;;;1.47;;
12861;SDS011;6499;66.348;14.134;2024-01-15T06:05:52;3.27;;;1.10;;
12861;SDS011;6499;66.348;14.134;2024-01-15T06:08:18;2.03;;;1.37;;
12861;SDS011;6499;66.348;14.134;2024-01-15T06:10:46;0.93;;;0.73;;
12861;SDS011;6499;66.348;14.134;2024-01-15T06:13:14;0.53;;;0.53;;
12861;SDS011;6499;66.348;14.134;2024-01-15T06:15:40;2.13;;;1.83;;
12861;SDS011;6499;66.348;14.134;2024-01-15T06:18:07;5.93;;;3.10;;
12861;SDS011;6499;66.348;14.134;2024-01-15T06:20:35;3.87;;;3.17;;
12861;SDS011;6499;66.348;14.134;2024-01-15T06:23:02;2.63;;;2.43;;
12861;SDS011;6499;66.348;14.134;2024-01-15T06:25:31;1.67;;;1.57;;
12861;SDS011;6499;66.348;14.134;2024-01-15T06:27:57;1.43;;;1.20;;
12861;SDS011;6499;66.348;14.134;2024-01-15T06:30:25;1.37;;;1.27;;
12861;SDS011;6499;66.348;14.134;2024-01-15T06:32:52;1.97;;;1.43;;
12861;SDS011;6499;66.348;14.134;2024-01-15T06:35:18;1.03;;;0.93;;
12861;SDS011;6499;66.348;14.134;2024-01-15T06:37:45;0.80;;;0.73;;
12861;SDS011;6499;66.348;14.134;2024-01-15T06:40:11;0.70;;;0.70;;
12861;SDS011;6499;66.348;14.134;2024-01-15T06:42:38;1.57;;;0.90;;
12861;SDS011;6499;66.348;14.134;2024-01-15T06:45:05;0.87;;;0.70;;
12861;SDS011;6499;66.348;14.134;2024-01-15T06:47:33;0.83;;;0.80;;
12861;SDS011;6499;66.348;14.134;2024-01-15T06:50:00;1.83;;;1.60;;
12861;SDS011;6499;66.348;14.134;2024-01-15T06:52:26;1.40;;;1.30;;
12861;SDS011;6499;66.348;14.134;2024-01-15T06:54:53;1.30;;;1.20;;
12861;SDS011;6499;66.348;14.134;2024-01-15T06:57:20;4.37;;;2.57;;
12861;SDS011;6499;66.348;14.134;2024-01-15T06:59:46;3.33;;;3.00;;
12861;SDS011;6499;66.348;14.134;2024-01-15T07:02:15;2.90;;;2.60;;
12861;SDS011;6499;66.348;14.134;2024-01-15T07:04:43;3.60;;;2.13;;
12861;SDS011;6499;66.348;14.134;2024-01-15T07:07:10;1.80;;;1.50;;
12861;SDS011;6499;66.348;14.134;2024-01-15T07:09:36;2.47;;;2.03;;
12861;SDS011;6499;66.348;14.134;2024-01-15T07:12:06;1.77;;;1.43;;
12861;SDS011;6499;66.348;14.134;2024-01-15T07:14:33;1.83;;;1.60;;
12861;SDS011;6499;66.348;14.134;2024-01-15T07:17:00;3.23;;;2.33;;
12861;SDS011;6499;66.348;14.134;2024-01-15T07:19:27;10.03;;;5.87;;
12861;SDS011;6499;66.348;14.134;2024-01-15T07:21:55;11.97;;;7.93;;
12861;SDS011;6499;66.348;14.134;2024-01-15T07:24:21;5.57;;;3.70;;
12861;SDS011;6499;66.348;14.134;2024-01-15T07:26:48;4.30;;;3.20;;
12861;SDS011;6499;66.348;14.134;2024-01-15T07:29:17;3.10;;;2.43;;
12861;SDS011;6499;66.348;14.134;2024-01-15T07:31:47;21.87;;;11.73;;
12861;SDS011;6499;66.348;14.134;2024-01-15T07:34:13;9.33;;;6.07;;
12861;SDS011;6499;66.348;14.134;2024-01-15T07:36:40;9.20;;;6.20;;
12861;SDS011;6499;66.348;14.134;2024-01-15T07:39:09;5.43;;;3.93;;
12861;SDS011;6499;66.348;14.134;2024-01-15T07:41:36;10.23;;;5.07;;
12861;SDS011;6499;66.348;14.134;2024-01-15T07:44:03;7.07;;;3.60;;
12861;SDS011;6499;66.348;14.134;2024-01-15T07:46:33;5.23;;;2.33;;
12861;SDS011;6499;66.348;14.134;2024-01-15T07:48:59;4.23;;;2.60;;
12861;SDS011;6499;66.348;14.134;2024-01-15T07:51:26;3.30;;;2.10;;
12861;SDS011;6499;66.348;14.134;2024-01-15T07:53:53;4.60;;;2.63;;
12861;SDS011;6499;66.348;14.134;2024-01-15T07:56:21;8.03;;;4.73;;
12861;SDS011;6499;66.348;14.134;2024-01-15T07:58:48;6.90;;;4.10;;
12861;SDS011;6499;66.348;14.134;2024-01-15T08:01:14;7.13;;;4.50;;
12861;SDS011;6499;66.348;14.134;2024-01-15T08:03:41;7.70;;;4.77;;
12861;SDS011;6499;66.348;14.134;2024-01-15T08:06:07;3.30;;;1.80;;
12861;SDS011;6499;66.348;14.134;2024-01-15T08:08:35;2.67;;;1.80;;
12861;SDS011;6499;66.348;14.134;2024-01-15T08:11:00;7.93;;;3.73;;
12861;SDS011;6499;66.348;14.134;2024-01-15T08:13:28;14.03;;;7.77;;
12861;SDS011;6499;66.348;14.134;2024-01-15T08:15:55;11.77;;;7.30;;
12861;SDS011;6499;66.348;14.134;2024-01-15T08:18:28;14.63;;;8.47;;
12861;SDS011;6499;66.348;14.134;2024-01-15T08:21:03;5.13;;;3.47;;
12861;SDS011;6499;66.348;14.134;2024-01-15T08:23:30;6.77;;;4.10;;
12861;SDS011;6499;66.348;14.134;2024-01-15T08:25:57;8.30;;;4.40;;
12861;SDS011;6499;66.348;14.134;2024-01-15T08:28:25;4.17;;;2.47;;
12861;SDS011;6499;66.348;14.134;2024-01-15T08:30:59;3.23;;;1.80;;
12861;SDS011;6499;66.348;14.134;2024-01-15T08:33:29;3.43;;;1.90;;
12861;SDS011;6499;66.348;14.134;2024-01-15T08:35:56;1.93;;;1.30;;
12861;SDS011;6499;66.348;14.134;2024-01-15T08:38:22;2.13;;;1.50;;
12861;SDS011;6499;66.348;14.134;2024-01-15T08:40:50;1.80;;;1.30;;
12861;SDS011;6499;66.348;14.134;2024-01-15T08:43:18;4.47;;;1.60;;
12861;SDS011;6499;66.348;14.134;2024-01-15T08:45:45;2.67;;;1.30;;
12861;SDS011;6499;66.348;14.134;2024-01-15T08:48:22;2.00;;;1.40;;
12861;SDS011;6499;66.348;14.134;2024-01-15T08:50:48;1.87;;;0.83;;
12861;SDS011;6499;66.348;14.134;2024-01-15T08:53:17;1.10;;;0.77;;
12861;SDS011;6499;66.348;14.134;2024-01-15T08:55:44;1.27;;;1.10;;
12861;SDS011;6499;66.348;14.134;2024-01-15T08:58:11;2.80;;;1.23;;
12861;SDS011;6499;66.348;14.134;2024-01-15T09:00:38;1.40;;;0.80;;
12861;SDS011;6499;66.348;14.134;2024-01-15T09:03:05;2.07;;;0.97;;
12861;SDS011;6499;66.348;14.134;2024-01-15T09:05:34;1.50;;;0.93;;
12861;SDS011;6499;66.348;14.134;2024-01-15T09:08:01;3.30;;;1.00;;
12861;SDS011;6499;66.348;14.134;2024-01-15T09:10:30;1.77;;;1.10;;
12861;SDS011;6499;66.348;14.134;2024-01-15T09:12:56;2.63;;;1.87;;
12861;SDS011;6499;66.348;14.134;2024-01-15T09:15:23;1.80;;;1.17;;
12861;SDS011;6499;66.348;14.134;2024-01-15T09:17:49;2.63;;;2.43;;
12861;SDS011;6499;66.348;14.134;2024-01-15T09:20:16;1.37;;;1.27;;
12861;SDS011;6499;66.348;14.134;2024-01-15T09:22:45;1.37;;;1.10;;
12861;SDS011;6499;66.348;14.134;2024-01-15T09:25:11;1.10;;;1.00;;
12861;SDS011;6499;66.348;14.134;2024-01-15T09:27:55;1.77;;;1.10;;
12861;SDS011;6499;66.348;14.134;2024-01-15T09:30:25;1.43;;;1.33;;
12861;SDS011;6499;66.348;14.134;2024-01-15T09:32:52;0.90;;;0.90;;
12861;SDS011;6499;66.348;14.134;2024-01-15T09:35:18;3.07;;;0.80;;
12861;SDS011;6499;66.348;14.134;2024-01-15T09:37:47;2.00;;;0.90;;
12861;SDS011;6499;66.348;14.134;2024-01-15T09:40:13;1.03;;;0.60;;
12861;SDS011;6499;66.348;14.134;2024-01-15T09:42:41;0.70;;;0.63;;
12861;SDS011;6499;66.348;14.134;2024-01-15T09:45:08;1.77;;;0.90;;
12861;SDS011;6499;66.348;14.134;2024-01-15T09:47:35;1.33;;;0.70;;
12861;SDS011;6499;66.348;14.134;2024-01-15T09:50:02;1.70;;;1.07;;
12861;SDS011;6499;66.348;14.134;2024-01-15T09:52:32;2.40;;;1.77;;
12861;SDS011;6499;66.348;14.134;2024-01-15T09:55:02;1.77;;;1.20;;
12861;SDS011;6499;66.348;14.134;2024-01-15T09:57:30;3.37;;;2.20;;
12861;SDS011;6499;66.348;14.134;2024-01-15T09:59:57;4.40;;;2.73;;
12861;SDS011;6499;66.348;14.134;2024-01-15T10:02:25;3.20;;;2.43;;
12861;SDS011;6499;66.348;14.134;2024-01-15T10:04:52;4.17;;;2.60;;
12861;SDS011;6499;66.348;14.134;2024-01-15T10:07:20;4.17;;;2.87;;
12861;SDS011;6499;66.348;14.134;2024-01-15T10:09:47;3.40;;;2.77;;
12861;SDS011;6499;66.348;14.134;2024-01-15T10:12:15;2.10;;;1.90;;
12861;SDS011;6499;66.348;14.134;2024-01-15T10:14:41;2.63;;;2.10;;
12861;SDS011;6499;66.348;14.134;2024-01-15T10:17:11;1.70;;;1.60;;
12861;SDS011;6499;66.348;14.134;2024-01-15T10:19:38;1.57;;;1.47;;
12861;SDS011;6499;66.348;14.134;2024-01-15T10:22:06;1.83;;;1.60;;
12861;SDS011;6499;66.348;14.134;2024-01-15T10:24:34;4.43;;;3.10;;
12861;SDS011;6499;66.348;14.134;2024-01-15T10:27:04;6.03;;;3.93;;
12861;SDS011;6499;66.348;14.134;2024-01-15T10:29:32;3.97;;;2.77;;
12861;SDS011;6499;66.348;14.134;2024-01-15T10:31:59;2.73;;;1.77;;
12861;SDS011;6499;66.348;14.134;2024-01-15T10:34:26;2.20;;;1.53;;
12861;SDS011;6499;66.348;14.134;2024-01-15T10:36:53;1.30;;;1.17;;
12861;SDS011;6499;66.348;14.134;2024-01-15T10:39:22;1.37;;;1.27;;
12861;SDS011;6499;66.348;14.134;2024-01-15T10:41:55;2.10;;;1.30;;
12861;SDS011;6499;66.348;14.134;2024-01-15T10:44:21;0.80;;;0.70;;
12861;SDS011;6499;66.348;14.134;2024-01-15T10:46:52;1.13;;;0.80;;
12861;SDS011;6499;66.348;14.134;2024-01-15T10:49:20;1.23;;;0.97;;
12861;SDS011;6499;66.348;14.134;2024-01-15T10:51:52;1.93;;;1.10;;
12861;SDS011;6499;66.348;14.134;2024-01-15T10:54:19;1.40;;;0.70;;
12861;SDS011;6499;66.348;14.134;2024-01-15T10:56:48;0.60;;;0.60;;
12861;SDS011;6499;66.348;14.134;2024-01-15T10:59:15;0.50;;;0.50;;
12861;SDS011;6499;66.348;14.134;2024-01-15T11:01:42;1.13;;;0.70;;
12861;SDS011;6499;66.348;14.134;2024-01-15T11:04:10;1.70;;;1.10;;
12861;SDS011;6499;66.348;14.134;2024-01-15T11:06:44;10.37;;;6.40;;
12861;SDS011;6499;66.348;14.134;2024-01-15T11:09:11;8.57;;;5.40;;
12861;SDS011;6499;66.348;14.134;2024-01-15T11:11:54;6.70;;;5.20;;
12861;SDS011;6499;66.348;14.134;2024-01-15T11:14:34;6.63;;;4.83;;
12861;SDS011;6499;66.348;14.134;2024-01-15T11:17:01;7.47;;;4.33;;
12861;SDS011;6499;66.348;14.134;2024-01-15T11:19:36;10.77;;;5.27;;
12861;SDS011;6499;66.348;14.134;2024-01-15T11:25:01;6.60;;;3.80;;
12861;SDS011;6499;66.348;14.134;2024-01-15T11:27:39;6.70;;;3.57;;
12861;SDS011;6499;66.348;14.134;2024-01-15T11:30:09;6.03;;;3.40;;
12861;SDS011;6499;66.348;14.134;2024-01-15T11:32:41;5.43;;;3.13;;
12861;SDS011;6499;66.348;14.134;2024-01-15T11:35:22;3.53;;;2.07;;
12861;SDS011;6499;66.348;14.134;2024-01-15T11:37:58;3.77;;;2.00;;
12861;SDS011;6499;66.348;14.134;2024-01-15T11:40:38;4.33;;;2.37;;
12861;SDS011;6499;66.348;14.134;2024-01-15T11:43:07;4.83;;;2.70;;
12861;SDS011;6499;66.348;14.134;2024-01-15T11:45:34;3.97;;;2.30;;
12861;SDS011;6499;66.348;14.134;2024-01-15T11:48:07;3.40;;;2.00;;
12861;SDS011;6499;66.348;14.134;2024-01-15T11:50:36;4.93;;;2.43;;
12861;SDS011;6499;66.348;14.134;2024-01-15T11:53:07;6.30;;;2.77;;
12861;SDS011;6499;66.348;14.134;2024-01-15T11:55:57;2.73;;;1.27;;
12861;SDS011;6499;66.348;14.134;2024-01-15T11:58:27;4.23;;;1.50;;
12861;SDS011;6499;66.348;14.134;2024-01-15T12:00:54;6.63;;;2.10;;
12861;SDS011;6499;66.348;14.134;2024-01-15T12:03:24;3.97;;;1.80;;
12861;SDS011;6499;66.348;14.134;2024-01-15T12:05:54;82.73;;;24.33;;
12861;SDS011;6499;66.348;14.134;2024-01-15T12:08:21;37.60;;;14.07;;
12861;SDS011;6499;66.348;14.134;2024-01-15T12:10:48;82.60;;;26.87;;
12861;SDS011;6499;66.348;14.134;2024-01-15T12:13:15;57.73;;;20.87;;
12861;SDS011;6499;66.348;14.134;2024-01-15T12:15:43;69.97;;;23.43;;
12861;SDS011;6499;66.348;14.134;2024-01-15T12:18:11;36.33;;;12.43;;
12861;SDS011;6499;66.348;14.134;2024-01-15T12:20:42;18.30;;;7.43;;
12861;SDS011;6499;66.348;14.134;2024-01-15T12:23:13;15.47;;;6.03;;
12861;SDS011;6499;66.348;14.134;2024-01-15T12:25:40;9.60;;;4.60;;
12861;SDS011;6499;66.348;14.134;2024-01-15T12:28:07;9.57;;;4.50;;
12861;SDS011;6499;66.348;14.134;2024-01-15T12:30:34;11.47;;;4.57;;
12861;SDS011;6499;66.348;14.134;2024-01-15T12:33:09;11.87;;;5.20;;
12861;SDS011;6499;66.348;14.134;2024-01-15T12:35:41;7.00;;;3.70;;
12861;SDS011;6499;66.348;14.134;2024-01-15T12:40:59;4.67;;;2.87;;
12861;SDS011;6499;66.348;14.134;2024-01-15T12:43:26;10.23;;;4.10;;
12861;SDS011;6499;66.348;14.134;2024-01-15T12:45:53;12.93;;;6.87;;
12861;SDS011;6499;66.348;14.134;2024-01-15T12:48:22;9.47;;;4.80;;
12861;SDS011;6499;66.348;14.134;2024-01-15T12:50:52;4.63;;;3.40;;
12861;SDS011;6499;66.348;14.134;2024-01-15T12:53:18;5.83;;;3.20;;
12861;SDS011;6499;66.348;14.134;2024-01-15T12:55:45;2.00;;;1.70;;
12861;SDS011;6499;66.348;14.134;2024-01-15T12:58:13;2.63;;;1.90;;
12861;SDS011;6499;66.348;14.134;2024-01-15T13:00:40;1.20;;;1.00;;
12861;SDS011;6499;66.348;14.134;2024-01-15T13:03:07;3.13;;;1.93;;
12861;SDS011;6499;66.348;14.134;2024-01-15T13:05:33;2.87;;;2.00;;
12861;SDS011;6499;66.348;14.134;2024-01-15T13:08:01;2.47;;;1.60;;
12861;SDS011;6499;66.348;14.134;2024-01-15T13:10:28;2.03;;;1.57;;
12861;SDS011;6499;66.348;14.134;2024-01-15T13:12:56;2.20;;;1.20;;
12861;SDS011;6499;66.348;14.134;2024-01-15T13:15:24;1.70;;;1.60;;
12861;SDS011;6499;66.348;14.134;2024-01-15T13:17:50;1.77;;;1.10;;
12861;SDS011;6499;66.348;14.134;2024-01-15T13:20:17;1.77;;;1.23;;
12861;SDS011;6499;66.348;14.134;2024-01-15T13:22:43;1.10;;;0.93;;
12861;SDS011;6499;66.348;14.134;2024-01-15T13:25:11;1.30;;;1.07;;
12861;SDS011;6499;66.348;14.134;2024-01-15T13:27:37;3.03;;;1.97;;
12861;SDS011;6499;66.348;14.134;2024-01-15T13:30:04;2.47;;;1.60;;
12861;SDS011;6499;66.348;14.134;2024-01-15T13:32:33;2.63;;;1.70;;
12861;SDS011;6499;66.348;14.134;2024-01-15T13:37:48;15.70;;;4.27;;
12861;SDS011;6499;66.348;14.134;2024-01-15T13:40:14;23.43;;;7.50;;
12861;SDS011;6499;66.348;14.134;2024-01-15T13:42:45;18.63;;;5.63;;
12861;SDS011;6499;66.348;14.134;2024-01-15T13:45:15;16.17;;;4.33;;
12861;SDS011;6499;66.348;14.134;2024-01-15T13:47:43;14.70;;;4.80;;
12861;SDS011;6499;66.348;14.134;2024-01-15T13:50:10;7.00;;;2.67;;
12861;SDS011;6499;66.348;14.134;2024-01-15T13:52:36;7.27;;;3.27;;
12861;SDS011;6499;66.348;14.134;2024-01-15T13:55:03;7.17;;;2.80;;
12861;SDS011;6499;66.348;14.134;2024-01-15T13:57:34;6.77;;;2.60;;
12861;SDS011;6499;66.348;14.134;2024-01-15T14:00:12;5.43;;;2.50;;
12861;SDS011;6499;66.348;14.134;2024-01-15T14:02:47;3.40;;;1.93;;
12861;SDS011;6499;66.348;14.134;2024-01-15T14:05:13;7.67;;;2.73;;
12861;SDS011;6499;66.348;14.134;2024-01-15T14:07:41;13.07;;;5.50;;
12861;SDS011;6499;66.348;14.134;2024-01-15T14:10:10;6.43;;;3.20;;
12861;SDS011;6499;66.348;14.134;2024-01-15T14:12:53;4.50;;;2.47;;
12861;SDS011;6499;66.348;14.134;2024-01-15T14:15:20;5.37;;;2.43;;
12861;SDS011;6499;66.348;14.134;2024-01-15T14:17:48;3.03;;;1.70;;
12861;SDS011;6499;66.348;14.134;2024-01-15T14:20:15;1.70;;;1.20;;
12861;SDS011;6499;66.348;14.134;2024-01-15T14:22:42;1.83;;;1.00;;
12861;SDS011;6499;66.348;14.134;2024-01-15T14:25:10;1.57;;;1.00;;
12861;SDS011;6499;66.348;14.134;2024-01-15T14:27:36;2.10;;;1.30;;
12861;SDS011;6499;66.348;14.134;2024-01-15T14:30:03;2.20;;;1.03;;
12861;SDS011;6499;66.348;14.134;2024-01-15T14:32:31;1.70;;;1.00;;
12861;SDS011;6499;66.348;14.134;2024-01-15T14:34:58;46.63;;;18.80;;
12861;SDS011;6499;66.348;14.134;2024-01-15T14:37:25;10.23;;;4.50;;
12861;SDS011;6499;66.348;14.134;2024-01-15T14:39:52;9.40;;;3.60;;
12861;SDS011;6499;66.348;14.134;2024-01-15T14:45:04;3.93;;;1.90;;
12861;SDS011;6499;66.348;14.134;2024-01-15T14:47:36;4.60;;;2.50;;
12861;SDS011;6499;66.348;14.134;2024-01-15T14:50:06;4.27;;;1.90;;
12861;SDS011;6499;66.348;14.134;2024-01-15T14:52:33;4.13;;;2.23;;
12861;SDS011;6499;66.348;14.134;2024-01-15T14:54:59;6.07;;;2.70;;
12861;SDS011;6499;66.348;14.134;2024-01-15T14:57:26;6.40;;;2.33;;
12861;SDS011;6499;66.348;14.134;2024-01-15T14:59:53;69.00;;;28.70;;
12861;SDS011;6499;66.348;14.134;2024-01-15T15:02:19;26.90;;;13.90;;
12861;SDS011;6499;66.348;14.134;2024-01-15T15:04:46;26.00;;;12.20;;
12861;SDS011;6499;66.348;14.134;2024-01-15T15:07:14;12.50;;;7.17;;
12861;SDS011;6499;66.348;14.134;2024-01-15T15:09:40;25.30;;;12.47;;